createdAt,value
2022-10-04T00:02:29.971Z,19.10
2022-10-04T00:05:04.455Z,19.10
2022-10-04T00:07:35.308Z,19.10
2022-10-04T00:10:16.440Z,19.00
2022-10-04T00:12:49.309Z,19.10
2022-10-04T00:15:21.990Z,19.00
2022-10-04T00:18:05.909Z,18.90
2022-10-04T00:20:58.959Z,18.90
2022-10-04T00:23:30.590Z,19.00
2022-10-04T00:26:01.957Z,19.00
2022-10-04T00:28:43.461Z,19.00
2022-10-04T00:31:23.155Z,19.00
2022-10-04T00:33:57.207Z,19.10
2022-10-04T00:36:53.554Z,19.10
2022-10-04T00:39:42.308Z,19.00
2022-10-04T00:42:37.193Z,18.90
2022-10-04T00:45:14.065Z,18.90
2022-10-04T00:48:10.969Z,18.80
2022-10-04T00:50:44.152Z,18.70
2022-10-04T00:53:19.220Z,18.60
2022-10-04T00:55:52.161Z,18.50
2022-10-04T00:58:24.725Z,18.50
2022-10-04T01:00:55.516Z,18.50
2022-10-04T01:03:29.039Z,18.50
2022-10-04T01:06:00.721Z,18.40
2022-10-04T01:08:33.649Z,18.30
2022-10-04T01:11:06.430Z,18.30
2022-10-04T01:13:40.133Z,18.40
2022-10-04T01:16:14.677Z,18.30
2022-10-04T01:18:43.006Z,18.40
2022-10-04T01:21:27.339Z,18.40
2022-10-04T01:24:17.407Z,18.30
2022-10-04T01:26:45.976Z,18.30
2022-10-04T01:29:17.457Z,18.20
2022-10-04T01:31:47.795Z,18.20
2022-10-04T01:34:18.351Z,18.30
2022-10-04T01:36:48.878Z,18.30
2022-10-04T01:39:20.523Z,18.20
2022-10-04T01:41:54.467Z,18.10
2022-10-04T01:44:28.360Z,18.10
2022-10-04T01:46:59.632Z,18.10
2022-10-04T01:49:30.830Z,18.20
2022-10-04T01:52:03.842Z,18.20
2022-10-04T01:54:42.049Z,18.20
2022-10-04T01:57:16.180Z,18.20
2022-10-04T01:59:50.355Z,18.10
2022-10-04T02:02:27.017Z,18.10
2022-10-04T02:04:56.139Z,18.10
2022-10-04T02:07:26.620Z,18.10
2022-10-04T02:10:01.453Z,18.00
2022-10-04T02:12:34.343Z,18.00
2022-10-04T02:15:06.275Z,17.90
2022-10-04T02:17:39.770Z,17.90
2022-10-04T02:20:13.597Z,17.90
2022-10-04T02:22:43.417Z,17.80
2022-10-04T02:25:14.934Z,17.70
2022-10-04T02:27:44.121Z,17.60
2022-10-04T02:30:14.132Z,17.50
2022-10-04T02:32:59.975Z,17.60
2022-10-04T02:35:30.430Z,17.60
2022-10-04T02:38:13.102Z,17.60
2022-10-04T02:40:50.465Z,17.60
2022-10-04T02:43:23.092Z,17.60
2022-10-04T02:45:55.632Z,17.50
2022-10-04T02:48:32.466Z,17.40
2022-10-04T02:51:07.183Z,17.40
2022-10-04T02:53:44.204Z,17.40
2022-10-04T02:56:14.143Z,17.40
2022-10-04T02:58:42.795Z,17.30
2022-10-04T03:01:18.681Z,17.30
2022-10-04T03:03:47.934Z,17.20
2022-10-04T03:06:20.035Z,17.20
2022-10-04T03:08:51.689Z,17.20
2022-10-04T03:11:23.700Z,17.20
2022-10-04T03:13:54.515Z,17.30
2022-10-04T03:16:24.016Z,17.30
2022-10-04T03:18:53.593Z,17.30
2022-10-04T03:21:23.473Z,17.30
2022-10-04T03:23:52.412Z,17.30
2022-10-04T03:26:33.022Z,17.20
2022-10-04T03:29:01.398Z,17.10
2022-10-04T03:31:30.208Z,17.10
2022-10-04T03:33:58.987Z,17.20
2022-10-04T03:36:27.895Z,17.20
2022-10-04T03:38:57.709Z,17.10
2022-10-04T03:41:27.647Z,17.10
2022-10-04T03:43:58.608Z,17.00
2022-10-04T03:46:29.901Z,16.90
2022-10-04T03:48:58.901Z,16.90
2022-10-04T03:51:27.971Z,16.90
2022-10-04T03:53:58.531Z,16.80
2022-10-04T03:56:31.093Z,16.80
2022-10-04T03:58:59.440Z,16.70
2022-10-04T04:01:40.086Z,16.70
2022-10-04T04:04:18.842Z,16.70
2022-10-04T04:06:52.731Z,16.80
2022-10-04T04:09:25.257Z,16.70
2022-10-04T04:11:57.181Z,16.60
2022-10-04T04:14:27.090Z,16.60
2022-10-04T04:17:29.852Z,16.70
2022-10-04T04:20:03.472Z,16.70
2022-10-04T04:22:35.672Z,16.60
2022-10-04T04:25:08.547Z,16.50
2022-10-04T04:27:42.210Z,16.60
2022-10-04T04:30:17.981Z,16.60
2022-10-04T04:32:50.429Z,16.50
2022-10-04T04:35:24.276Z,16.50
2022-10-04T04:38:17.760Z,16.50
2022-10-04T04:40:46.131Z,16.40
2022-10-04T04:43:20.161Z,16.40
2022-10-04T04:46:03.042Z,16.30
2022-10-04T04:48:37.701Z,16.40
2022-10-04T04:51:06.173Z,16.30
2022-10-04T04:53:34.967Z,16.30
2022-10-04T04:56:05.152Z,16.20
2022-10-04T04:58:38.301Z,16.20
2022-10-04T05:01:13.660Z,16.30
2022-10-04T05:03:42.444Z,16.30
2022-10-04T05:06:25.612Z,16.30
2022-10-04T05:08:53.753Z,16.30
2022-10-04T05:11:24.402Z,16.30
2022-10-04T05:13:57.983Z,16.30
2022-10-04T05:16:32.368Z,16.30
2022-10-04T05:19:03.492Z,16.30
2022-10-04T05:21:33.752Z,16.30
2022-10-04T05:24:11.152Z,16.40
2022-10-04T05:26:41.856Z,16.30
2022-10-04T05:29:16.874Z,16.40
2022-10-04T05:31:51.017Z,16.40
2022-10-04T05:34:23.631Z,16.30
2022-10-04T05:37:06.941Z,16.40
2022-10-04T05:39:43.034Z,16.40
2022-10-04T05:42:20.094Z,16.30
2022-10-04T05:44:52.252Z,16.40
2022-10-04T05:47:24.292Z,16.40
2022-10-04T05:49:54.592Z,16.40
2022-10-04T05:52:33.491Z,16.40
2022-10-04T05:55:28.604Z,16.40
2022-10-04T05:58:25.572Z,16.40
2022-10-04T06:01:17.656Z,16.40
2022-10-04T06:04:00.381Z,16.50
2022-10-04T06:06:38.702Z,16.50
2022-10-04T06:09:14.332Z,16.60
2022-10-04T06:11:53.663Z,16.60
2022-10-04T06:14:46.041Z,16.70
2022-10-04T06:17:45.291Z,16.80
2022-10-04T06:20:36.197Z,16.80
2022-10-04T06:23:12.283Z,16.80
2022-10-04T06:25:46.443Z,16.90
2022-10-04T06:28:19.424Z,17.00
2022-10-04T06:31:10.463Z,17.00
2022-10-04T06:33:59.168Z,17.00
2022-10-04T06:37:00.298Z,16.90
2022-10-04T06:39:52.690Z,17.00
2022-10-04T06:42:47.172Z,17.00
2022-10-04T06:45:35.357Z,17.10
2022-10-04T06:48:22.934Z,17.10
2022-10-04T06:51:02.390Z,17.10
2022-10-04T06:53:39.691Z,17.10
2022-10-04T06:56:31.211Z,17.10
2022-10-04T06:59:22.697Z,17.20
2022-10-04T07:01:53.751Z,17.20
2022-10-04T07:04:41.103Z,17.20
2022-10-04T07:07:35.702Z,17.10
2022-10-04T07:10:24.591Z,17.20
2022-10-04T07:13:06.150Z,17.20
2022-10-04T07:15:43.458Z,17.30
2022-10-04T07:18:18.711Z,17.40
2022-10-04T07:20:49.342Z,17.50
2022-10-04T07:23:28.521Z,17.60
2022-10-04T07:26:01.514Z,17.60
2022-10-04T07:28:52.271Z,17.70
2022-10-04T07:31:28.349Z,17.80
2022-10-04T07:34:00.342Z,17.80
2022-10-04T07:36:31.712Z,17.90
2022-10-04T07:39:06.930Z,18.00
2022-10-04T07:41:39.118Z,18.10
2022-10-04T07:44:16.409Z,18.20
2022-10-04T07:46:50.229Z,18.30
2022-10-04T07:49:20.210Z,18.30
2022-10-04T07:52:13.223Z,18.40
2022-10-04T07:54:47.581Z,18.50
2022-10-04T07:57:22.124Z,18.60
2022-10-04T07:59:58.417Z,18.60
2022-10-04T08:02:41.582Z,18.70
2022-10-04T08:05:23.480Z,18.70
2022-10-04T08:08:09.338Z,18.80
2022-10-04T08:10:52.124Z,18.90
2022-10-04T08:13:28.371Z,18.90
2022-10-04T08:16:02.362Z,19.00
2022-10-04T08:18:47.201Z,19.10
2022-10-04T08:21:21.765Z,19.10
2022-10-04T08:24:05.139Z,19.30
2022-10-04T08:26:53.388Z,19.40
2022-10-04T08:29:43.181Z,19.50
2022-10-04T08:32:36.674Z,19.60
2022-10-04T08:35:36.805Z,19.60
2022-10-04T08:38:21.491Z,19.70
2022-10-04T08:41:27.747Z,19.80
2022-10-04T08:44:32.484Z,19.90
2022-10-04T08:47:43.472Z,19.80
2022-10-04T08:50:44.659Z,20.00
2022-10-04T08:53:45.938Z,20.10
2022-10-04T08:56:38.689Z,20.00
2022-10-04T08:59:36.221Z,20.00
2022-10-04T09:02:37.598Z,20.10
2022-10-04T09:05:29.487Z,20.20
2022-10-04T09:08:18.532Z,20.20
2022-10-04T09:11:00.930Z,20.30
2022-10-04T09:13:45.616Z,20.50
2022-10-04T09:16:19.400Z,20.60
2022-10-04T09:18:58.306Z,20.70
2022-10-04T09:21:43.073Z,20.70
2022-10-04T09:24:35.782Z,20.80
2022-10-04T09:27:36.806Z,21.00
2022-10-04T09:30:15.801Z,21.10
2022-10-04T09:33:26.197Z,21.30
2022-10-04T09:36:23.729Z,21.30
2022-10-04T09:39:30.288Z,21.40
2022-10-04T09:42:21.514Z,21.60
2022-10-04T09:45:33.594Z,21.60
2022-10-04T09:48:30.036Z,21.70
2022-10-04T09:51:42.227Z,21.90
2022-10-04T09:54:34.334Z,22.10
2022-10-04T09:57:28.273Z,22.20
2022-10-04T10:00:10.062Z,22.40
2022-10-04T10:03:28.242Z,22.40
2022-10-04T10:06:22.722Z,22.50
2022-10-04T10:09:06.110Z,22.70
2022-10-04T10:12:03.771Z,22.90
2022-10-04T10:14:55.862Z,23.20
2022-10-04T10:17:36.653Z,23.30
2022-10-04T10:20:31.733Z,23.40
2022-10-04T10:23:22.011Z,23.50
2022-10-04T10:26:23.101Z,23.70
2022-10-04T10:29:17.538Z,23.90
2022-10-04T10:32:09.472Z,23.90
2022-10-04T10:35:16.767Z,24.00
2022-10-04T10:38:03.611Z,24.20
2022-10-04T10:40:46.320Z,24.30
2022-10-04T10:43:36.987Z,24.30
2022-10-04T10:46:23.762Z,24.30
2022-10-04T10:49:04.976Z,24.30
2022-10-04T10:52:06.429Z,24.30
2022-10-04T10:55:00.089Z,24.30
2022-10-04T10:57:59.062Z,24.30
2022-10-04T11:00:45.026Z,24.50
2022-10-04T11:03:44.199Z,24.60
2022-10-04T11:06:29.706Z,24.70
2022-10-04T11:09:29.916Z,24.70
2022-10-04T11:12:17.901Z,24.90
2022-10-04T11:15:09.818Z,25.10
2022-10-04T11:18:04.669Z,25.10
2022-10-04T11:21:15.946Z,25.00
2022-10-04T11:24:19.866Z,25.00
2022-10-04T11:27:11.090Z,25.20
2022-10-04T11:29:55.476Z,25.40
2022-10-04T11:32:54.885Z,25.50
2022-10-04T11:35:53.658Z,25.60
2022-10-04T11:38:34.286Z,25.70
2022-10-04T11:41:15.866Z,25.80
2022-10-04T11:44:15.035Z,25.80
2022-10-04T11:46:53.551Z,25.90
2022-10-04T11:49:50.743Z,26.00
2022-10-04T11:52:45.017Z,26.00
2022-10-04T11:55:54.479Z,26.10
2022-10-04T11:58:34.506Z,26.20
2022-10-04T12:01:32.396Z,26.40
2022-10-04T12:04:31.833Z,26.30
2022-10-04T12:07:22.986Z,26.50
2022-10-04T12:10:02.165Z,26.60
2022-10-04T12:12:54.375Z,26.50
2022-10-04T12:15:41.825Z,26.50
2022-10-04T12:18:55.845Z,26.40
2022-10-04T12:22:03.624Z,26.40
2022-10-04T12:25:11.655Z,26.50
2022-10-04T12:27:59.923Z,26.80
2022-10-04T12:30:39.667Z,27.10
2022-10-04T12:33:17.065Z,27.30
2022-10-04T12:35:59.287Z,27.30
2022-10-04T12:38:50.424Z,27.40
2022-10-04T12:41:31.105Z,27.50
2022-10-04T12:44:13.513Z,27.60
2022-10-04T12:46:55.105Z,27.60
2022-10-04T12:49:35.195Z,27.60
2022-10-04T12:52:11.277Z,27.60
2022-10-04T12:54:44.136Z,27.60
2022-10-04T12:57:41.311Z,27.70
2022-10-04T13:00:19.407Z,27.70
2022-10-04T13:03:24.967Z,27.60
2022-10-04T13:06:03.325Z,27.60
2022-10-04T13:08:53.856Z,27.70
2022-10-04T13:11:52.596Z,27.70
2022-10-04T13:14:50.882Z,27.70
2022-10-04T13:17:35.864Z,27.80
2022-10-04T13:20:23.810Z,27.80
2022-10-04T13:22:58.983Z,27.80
2022-10-04T13:25:45.879Z,28.00
2022-10-04T13:28:23.788Z,28.00
2022-10-04T13:31:01.848Z,28.10
2022-10-04T13:33:41.830Z,28.20
2022-10-04T13:36:18.201Z,28.20
2022-10-04T13:39:07.549Z,28.10
2022-10-04T13:41:54.763Z,28.10
2022-10-04T13:44:46.061Z,28.10
2022-10-04T13:47:36.793Z,28.00
2022-10-04T13:50:27.003Z,27.80
2022-10-04T13:53:27.249Z,27.80
2022-10-04T13:56:20.493Z,27.70
2022-10-04T13:58:53.984Z,27.60
2022-10-04T14:02:02.231Z,27.50
2022-10-04T14:05:09.616Z,27.60
2022-10-04T14:08:21.625Z,27.70
2022-10-04T14:11:21.693Z,27.80
2022-10-04T14:14:13.351Z,27.70
2022-10-04T14:17:11.913Z,27.70
2022-10-04T14:20:07.143Z,27.80
2022-10-04T14:23:00.905Z,27.80
2022-10-04T14:26:10.764Z,27.80
2022-10-04T14:29:14.823Z,28.00
2022-10-04T14:32:13.648Z,28.00
2022-10-04T14:35:02.054Z,28.00
2022-10-04T14:38:08.354Z,27.90
2022-10-04T14:41:37.182Z,27.80
2022-10-04T14:44:45.449Z,28.00
2022-10-04T14:51:06.113Z,28.00
2022-10-04T14:53:42.452Z,27.70
2022-10-04T14:56:58.122Z,27.60
2022-10-04T14:59:47.721Z,27.50
2022-10-04T15:02:44.073Z,27.30
2022-10-04T15:05:35.923Z,27.10
2022-10-04T15:08:34.846Z,27.00
2022-10-04T15:11:06.797Z,26.90
2022-10-04T15:13:41.408Z,26.80
2022-10-04T15:16:17.968Z,26.60
2022-10-04T15:18:52.799Z,26.50
2022-10-04T15:21:52.269Z,26.40
2022-10-04T15:24:27.763Z,26.20
2022-10-04T15:27:31.831Z,26.10
2022-10-04T15:30:10.880Z,26.00
2022-10-04T15:32:47.379Z,26.00
2022-10-04T15:35:25.388Z,25.90
2022-10-04T15:37:59.307Z,25.80
2022-10-04T15:40:38.536Z,25.80
2022-10-04T15:43:18.944Z,25.60
2022-10-04T15:46:27.531Z,25.50
2022-10-04T15:49:31.821Z,25.20
2022-10-04T15:52:26.841Z,25.10
2022-10-04T15:55:21.854Z,25.00
2022-10-04T15:58:15.612Z,24.90
2022-10-04T16:00:54.166Z,24.90
2022-10-04T16:03:40.679Z,24.70
2022-10-04T16:06:12.820Z,24.60
2022-10-04T16:08:58.507Z,24.60
2022-10-04T16:11:39.220Z,24.50
2022-10-04T16:14:29.728Z,24.40
2022-10-04T16:17:12.879Z,24.40
2022-10-04T16:20:15.270Z,24.30
2022-10-04T16:23:26.827Z,24.30
2022-10-04T16:25:56.549Z,24.20
2022-10-04T16:28:44.906Z,24.10
2022-10-04T16:31:27.420Z,24.00
2022-10-04T16:34:04.201Z,23.90
2022-10-04T16:40:06.133Z,23.80
2022-10-04T16:42:47.420Z,23.70
2022-10-04T16:45:46.639Z,23.60
2022-10-04T16:48:29.750Z,23.50
2022-10-04T16:51:26.359Z,23.50
2022-10-04T16:53:59.914Z,23.40
2022-10-04T16:56:30.014Z,23.40
2022-10-04T16:59:00.973Z,23.40
2022-10-04T17:02:07.093Z,23.30
2022-10-04T17:05:08.055Z,23.30
2022-10-04T17:07:53.212Z,23.20
2022-10-04T17:10:34.518Z,23.20
2022-10-04T17:13:16.897Z,23.10
2022-10-04T17:15:49.370Z,23.00
2022-10-04T17:18:31.444Z,23.00
2022-10-04T17:21:06.293Z,23.00
2022-10-04T17:24:00.467Z,23.00
2022-10-04T17:26:47.732Z,22.90
2022-10-04T17:29:37.244Z,22.90
2022-10-04T17:32:17.168Z,22.90
2022-10-04T17:34:58.716Z,22.80
2022-10-04T17:37:36.478Z,22.80
2022-10-04T17:40:41.466Z,22.70
2022-10-04T17:43:21.874Z,22.60
2022-10-04T17:46:17.901Z,22.50
2022-10-04T17:49:08.579Z,22.40
2022-10-04T17:52:13.660Z,22.40
2022-10-04T17:55:05.818Z,22.50
2022-10-04T17:57:43.668Z,22.50
2022-10-04T18:00:13.674Z,22.40
2022-10-04T18:03:07.907Z,22.50
2022-10-04T18:05:47.013Z,22.60
2022-10-04T18:08:21.354Z,22.60
2022-10-04T18:10:52.626Z,22.50
2022-10-04T18:13:29.043Z,22.60
2022-10-04T18:16:04.501Z,22.60
2022-10-04T18:18:51.199Z,22.50
2022-10-04T18:21:22.459Z,22.30
2022-10-04T18:23:56.264Z,22.20
2022-10-04T18:26:28.466Z,22.10
2022-10-04T18:28:58.001Z,22.10
2022-10-04T18:31:38.620Z,22.10
2022-10-04T18:34:20.249Z,22.00
2022-10-04T18:36:56.914Z,21.80
2022-10-04T18:39:25.451Z,21.70
2022-10-04T18:42:12.554Z,21.70
2022-10-04T18:44:47.749Z,21.60
2022-10-04T18:47:21.395Z,21.60
2022-10-04T18:49:52.498Z,21.60
2022-10-04T18:52:32.847Z,21.60
2022-10-04T18:55:14.152Z,21.70
2022-10-04T18:58:07.278Z,21.70
2022-10-04T19:01:02.584Z,21.70
2022-10-04T19:03:38.625Z,21.70
2022-10-04T19:06:16.681Z,21.80
2022-10-04T19:08:58.222Z,21.70
2022-10-04T19:11:33.713Z,21.70
2022-10-04T19:14:08.834Z,21.70
2022-10-04T19:16:44.101Z,21.70
2022-10-04T19:19:32.251Z,21.70
2022-10-04T19:22:03.761Z,21.60
2022-10-04T19:25:00.870Z,21.60
2022-10-04T19:27:36.776Z,21.50
2022-10-04T19:30:15.984Z,21.50
2022-10-04T19:33:00.258Z,21.50
2022-10-04T19:35:40.849Z,21.50
2022-10-04T19:38:26.583Z,21.40
2022-10-04T19:41:01.838Z,21.40
2022-10-04T19:43:42.672Z,21.30
2022-10-04T19:46:24.201Z,21.20
2022-10-04T19:48:53.780Z,21.20
2022-10-04T19:51:28.611Z,21.20
2022-10-04T19:54:04.058Z,21.20
2022-10-04T19:56:36.218Z,21.20
2022-10-04T19:59:12.058Z,21.00
2022-10-04T20:01:41.587Z,20.90
2022-10-04T20:04:33.324Z,20.80
2022-10-04T20:07:02.698Z,20.70
2022-10-04T20:09:51.815Z,20.70
2022-10-04T20:12:33.245Z,20.70
2022-10-04T20:15:39.130Z,20.60
2022-10-04T20:19:05.923Z,20.60
2022-10-04T20:21:34.269Z,20.60
2022-10-04T20:24:02.674Z,20.70
2022-10-04T20:27:01.551Z,20.70
2022-10-04T20:30:04.425Z,20.60
2022-10-04T20:32:57.780Z,20.60
2022-10-04T20:36:09.441Z,20.50
2022-10-04T20:38:52.010Z,20.40
2022-10-04T20:42:03.907Z,20.30
2022-10-04T20:45:04.207Z,20.30
2022-10-04T20:47:39.770Z,20.30
2022-10-04T20:50:19.021Z,20.30
2022-10-04T20:52:48.799Z,20.40
2022-10-04T20:55:28.354Z,20.30
2022-10-04T20:58:01.908Z,20.30
2022-10-04T21:00:34.118Z,20.30
2022-10-04T21:03:16.676Z,20.20
2022-10-04T21:05:49.870Z,20.10
2022-10-04T21:08:25.840Z,20.00
2022-10-04T21:11:13.274Z,20.00
2022-10-04T21:13:52.998Z,20.00
2022-10-04T21:16:41.645Z,20.00
2022-10-04T21:19:48.917Z,19.90
2022-10-04T21:22:40.512Z,19.90
2022-10-04T21:25:32.304Z,19.80
2022-10-04T21:28:39.546Z,19.90
2022-10-04T21:31:09.135Z,19.80
2022-10-04T21:33:37.466Z,19.80
2022-10-04T21:36:06.164Z,19.80
2022-10-04T21:38:34.086Z,19.90
2022-10-04T21:41:01.946Z,19.80
2022-10-04T21:43:29.973Z,19.80
2022-10-04T21:45:58.125Z,19.80
2022-10-04T21:48:27.673Z,19.80
2022-10-04T21:50:55.605Z,19.70
2022-10-04T21:53:32.715Z,19.80
2022-10-04T21:56:00.651Z,19.70
2022-10-04T21:58:28.360Z,19.80
2022-10-04T22:00:56.640Z,19.80
2022-10-04T22:03:24.542Z,19.70
2022-10-04T22:05:53.794Z,19.70
2022-10-04T22:08:21.885Z,19.70
2022-10-04T22:10:52.231Z,19.70
2022-10-04T22:13:22.366Z,19.70
2022-10-04T22:15:50.363Z,19.70
2022-10-04T22:18:18.277Z,19.60
2022-10-04T22:20:46.021Z,19.50
2022-10-04T22:23:19.594Z,19.50
2022-10-04T22:25:47.670Z,19.50
2022-10-04T22:28:21.949Z,19.50
2022-10-04T22:30:50.618Z,19.40
2022-10-04T22:33:29.052Z,19.40
2022-10-04T22:35:58.106Z,19.40
2022-10-04T22:38:27.163Z,19.50
2022-10-04T22:40:55.530Z,19.40
2022-10-04T22:43:23.137Z,19.30
2022-10-04T22:45:51.819Z,19.20
2022-10-04T22:48:19.469Z,19.10
2022-10-04T22:50:47.274Z,19.10
2022-10-04T22:53:20.035Z,19.10
2022-10-04T22:55:50.082Z,19.10
2022-10-04T22:58:18.460Z,19.10
2022-10-04T23:00:46.184Z,19.10
2022-10-04T23:03:25.181Z,19.10
2022-10-04T23:05:53.143Z,19.00
2022-10-04T23:08:20.825Z,19.10
2022-10-04T23:10:54.767Z,19.10
2022-10-04T23:13:24.844Z,19.00
2022-10-04T23:15:55.425Z,19.00
2022-10-04T23:18:23.697Z,19.00
2022-10-04T23:20:58.190Z,19.00
2022-10-04T23:23:28.410Z,19.10
2022-10-04T23:25:57.819Z,19.00
2022-10-04T23:28:25.947Z,19.00
2022-10-04T23:31:05.789Z,18.90
2022-10-04T23:33:34.310Z,19.00
2022-10-04T23:36:01.957Z,19.00
2022-10-04T23:38:31.324Z,18.90
2022-10-04T23:41:00.894Z,18.90
2022-10-04T23:43:31.921Z,18.90
2022-10-04T23:46:00.289Z,18.90
2022-10-04T23:51:05.631Z,18.80
2022-10-04T23:53:34.269Z,18.80
2022-10-04T23:56:09.336Z,18.80
2022-10-04T23:58:39.961Z,18.80
